Nantucket, MA (02554)

1:22 PM EDT on May 27, 2015 (GMT -0400)
Hummock Pond | | Change Station
CLOSE
Current Station
Personal Weather Station
Location: Nantucket, MA
Elevation: 36 ft
Nearby Weather Stations

Elev 36 ft 41.27 °N, 70.12 °W | Updated 13 minutes ago

Overcast
Overcast
66.2 °F
Feels Like 66.2 °F
N
16.1
Wind Variable Wind from SSW

Today
High -- | Low -- °F
--% Chance of Precip.
Yesterday
High -- | Low -- °F
Precip. -- in
5:12 AM 8:02 PM
Waxing Gibbous, 68% visible
Pressure 30.25 in
Visibility 10.0 miles
Clouds Overcast 1600 ft
Dew Point 58 °F
Humidity 75%
Rainfall 0.00 in
Snow Depth Not available.
UV 4 out of 12
Pollen 9.70 out of 12
Air Quality Not available.
Flu Activity Local Activity
METAR KMVY 271653Z 21015G29KT 10SM OVC016 19/15 A3024 RMK AO2 PK WND 22029/1644 SLP241 T01890150

More Conditions Fewer Conditions

Pressure 30.25 in
Visibility 10.0 miles
Clouds Overcast 1600 ft
Dew Point 58 °F
Humidity 75%
Rainfall 0.00 in
Snow Depth Not available.
UV 4 out of 12
Pollen 9.70 out of 12
Air Quality Not available.
Flu Activity Local Activity
METAR KMVY 271653Z 21015G29KT 10SM OVC016 19/15 A3024 RMK AO2 PK WND 22029/1644 SLP241 T01890150

More Conditions Fewer Conditions

10-Day Weather Forecast

Almanac

Astronomy

May. 27, 2015 Rise Set
Actual Time
Civil Twilight
Nautical Twilight
Astronomical Twilight
Moon
Length of Visible Light
Length of Day
Tomorrow will be .
, % of the Moon is Illuminated

Today's Extremes

State Highs State Lows

Community

WunderPhotos

Upload Photos

1,824,730 photos uploaded!

WunderBlogs® & News

Nearby

Air Quality

  Air Quality AQ Index Pollutant
Not available.

Snow Depth

Station Depth Elevation

Earthquake Activity

City Distance Mag. Time & Date
Minimum magnitude displayed is 2.5.

Coastal Water Temperatures

Place Temperature

Stations

Nearby Weather Stations

Station Location Temp. Windchill Dew Point Humidity Wind Precip. Elev Updated Type